sensor_id;sensor_type;location;lat;lon;timestamp;P1;durP1;ratioP1;P2;durP2;ratioP2
59728;SDS011;45588;51.598;5.618;2022-08-21T00:00:58;12.30;;;7.82;;
59728;SDS011;45588;51.598;5.618;2022-08-21T00:03:27;11.13;;;7.38;;
59728;SDS011;45588;51.598;5.618;2022-08-21T00:05:52;9.18;;;6.15;;
59728;SDS011;45588;51.598;5.618;2022-08-21T00:08:19;11.85;;;7.47;;
59728;SDS011;45588;51.598;5.618;2022-08-21T00:10:45;9.50;;;7.88;;
59728;SDS011;45588;51.598;5.618;2022-08-21T00:13:11;10.50;;;7.72;;
59728;SDS011;45588;51.598;5.618;2022-08-21T00:15:38;10.68;;;7.85;;
59728;SDS011;45588;51.598;5.618;2022-08-21T00:18:05;13.18;;;8.82;;
59728;SDS011;45588;51.598;5.618;2022-08-21T00:20:32;8.32;;;6.00;;
59728;SDS011;45588;51.598;5.618;2022-08-21T00:22:58;12.52;;;9.10;;
59728;SDS011;45588;51.598;5.618;2022-08-21T00:25:24;13.93;;;7.50;;
59728;SDS011;45588;51.598;5.618;2022-08-21T00:27:50;12.05;;;9.48;;
59728;SDS011;45588;51.598;5.618;2022-08-21T00:30:17;10.13;;;7.35;;
59728;SDS011;45588;51.598;5.618;2022-08-21T00:32:43;11.77;;;8.85;;
59728;SDS011;45588;51.598;5.618;2022-08-21T00:35:10;9.95;;;7.90;;
59728;SDS011;45588;51.598;5.618;2022-08-21T00:37:39;12.85;;;9.20;;
59728;SDS011;45588;51.598;5.618;2022-08-21T00:40:06;15.52;;;9.68;;
59728;SDS011;45588;51.598;5.618;2022-08-21T00:42:33;8.63;;;6.80;;
59728;SDS011;45588;51.598;5.618;2022-08-21T00:44:59;10.98;;;7.57;;
59728;SDS011;45588;51.598;5.618;2022-08-21T00:47:24;13.77;;;9.95;;
59728;SDS011;45588;51.598;5.618;2022-08-21T00:49:50;12.85;;;8.38;;
59728;SDS011;45588;51.598;5.618;2022-08-21T00:52:17;10.65;;;6.20;;
59728;SDS011;45588;51.598;5.618;2022-08-21T00:54:48;9.52;;;7.55;;
59728;SDS011;45588;51.598;5.618;2022-08-21T00:57:16;13.30;;;7.65;;
59728;SDS011;45588;51.598;5.618;2022-08-21T00:59:49;12.20;;;7.28;;
59728;SDS011;45588;51.598;5.618;2022-08-21T01:02:18;12.20;;;8.32;;
59728;SDS011;45588;51.598;5.618;2022-08-21T01:04:45;13.90;;;10.27;;
59728;SDS011;45588;51.598;5.618;2022-08-21T01:07:10;18.27;;;9.77;;
59728;SDS011;45588;51.598;5.618;2022-08-21T01:09:37;16.55;;;7.97;;
59728;SDS011;45588;51.598;5.618;2022-08-21T01:12:03;11.15;;;9.05;;
59728;SDS011;45588;51.598;5.618;2022-08-21T01:14:29;15.68;;;7.28;;
59728;SDS011;45588;51.598;5.618;2022-08-21T01:16:55;12.60;;;9.38;;
59728;SDS011;45588;51.598;5.618;2022-08-21T01:19:23;14.32;;;10.27;;
59728;SDS011;45588;51.598;5.618;2022-08-21T01:21:49;16.48;;;9.88;;
59728;SDS011;45588;51.598;5.618;2022-08-21T01:24:14;10.98;;;7.28;;
59728;SDS011;45588;51.598;5.618;2022-08-21T01:26:40;10.55;;;8.85;;
59728;SDS011;45588;51.598;5.618;2022-08-21T01:31:48;8.98;;;6.15;;
59728;SDS011;45588;51.598;5.618;2022-08-21T01:34:14;8.32;;;6.05;;
59728;SDS011;45588;51.598;5.618;2022-08-21T01:36:41;5.68;;;4.97;;
59728;SDS011;45588;51.598;5.618;2022-08-21T01:39:07;5.95;;;3.92;;
59728;SDS011;45588;51.598;5.618;2022-08-21T01:41:32;4.88;;;3.72;;
59728;SDS011;45588;51.598;5.618;2022-08-21T01:43:57;5.85;;;5.25;;
59728;SDS011;45588;51.598;5.618;2022-08-21T01:46:23;8.07;;;5.93;;
59728;SDS011;45588;51.598;5.618;2022-08-21T01:48:48;10.68;;;7.53;;
59728;SDS011;45588;51.598;5.618;2022-08-21T01:51:13;12.30;;;6.25;;
59728;SDS011;45588;51.598;5.618;2022-08-21T01:53:39;10.43;;;7.07;;
59728;SDS011;45588;51.598;5.618;2022-08-21T01:56:06;13.73;;;7.93;;
59728;SDS011;45588;51.598;5.618;2022-08-21T01:58:34;12.38;;;7.82;;
59728;SDS011;45588;51.598;5.618;2022-08-21T02:01:00;11.18;;;9.27;;
59728;SDS011;45588;51.598;5.618;2022-08-21T02:03:26;13.00;;;7.43;;
59728;SDS011;45588;51.598;5.618;2022-08-21T02:05:52;8.68;;;7.03;;
59728;SDS011;45588;51.598;5.618;2022-08-21T02:08:18;8.52;;;4.82;;
59728;SDS011;45588;51.598;5.618;2022-08-21T02:10:43;11.30;;;6.22;;
59728;SDS011;45588;51.598;5.618;2022-08-21T02:13:08;90.75;;;7.30;;
59728;SDS011;45588;51.598;5.618;2022-08-21T02:15:34;7.75;;;5.63;;
59728;SDS011;45588;51.598;5.618;2022-08-21T02:18:00;6.78;;;3.72;;
59728;SDS011;45588;51.598;5.618;2022-08-21T02:20:27;7.65;;;5.85;;
59728;SDS011;45588;51.598;5.618;2022-08-21T02:22:55;7.93;;;6.22;;
59728;SDS011;45588;51.598;5.618;2022-08-21T02:25:21;11.63;;;7.57;;
59728;SDS011;45588;51.598;5.618;2022-08-21T02:27:47;7.85;;;5.65;;
59728;SDS011;45588;51.598;5.618;2022-08-21T02:30:24;8.32;;;6.07;;
59728;SDS011;45588;51.598;5.618;2022-08-21T02:32:54;8.57;;;6.40;;
59728;SDS011;45588;51.598;5.618;2022-08-21T02:35:21;13.45;;;8.35;;
59728;SDS011;45588;51.598;5.618;2022-08-21T02:37:49;10.43;;;7.07;;
59728;SDS011;45588;51.598;5.618;2022-08-21T02:42:44;100.53;;;8.30;;
59728;SDS011;45588;51.598;5.618;2022-08-21T02:45:10;97.95;;;9.45;;
59728;SDS011;45588;51.598;5.618;2022-08-21T02:47:37;6.85;;;5.95;;
59728;SDS011;45588;51.598;5.618;2022-08-21T02:50:02;28.08;;;6.22;;
59728;SDS011;45588;51.598;5.618;2022-08-21T02:52:29;20.27;;;5.43;;
59728;SDS011;45588;51.598;5.618;2022-08-21T02:54:54;9.02;;;6.15;;
59728;SDS011;45588;51.598;5.618;2022-08-21T02:57:19;11.65;;;7.90;;
59728;SDS011;45588;51.598;5.618;2022-08-21T02:59:45;6.18;;;5.57;;
59728;SDS011;45588;51.598;5.618;2022-08-21T03:02:11;11.48;;;7.60;;
59728;SDS011;45588;51.598;5.618;2022-08-21T03:04:37;8.95;;;8.15;;
59728;SDS011;45588;51.598;5.618;2022-08-21T03:07:02;8.95;;;4.97;;
59728;SDS011;45588;51.598;5.618;2022-08-21T03:09:28;5.95;;;5.07;;
59728;SDS011;45588;51.598;5.618;2022-08-21T03:11:53;6.97;;;5.82;;
59728;SDS011;45588;51.598;5.618;2022-08-21T03:14:18;8.50;;;5.07;;
59728;SDS011;45588;51.598;5.618;2022-08-21T03:16:44;11.40;;;8.02;;
59728;SDS011;45588;51.598;5.618;2022-08-21T03:19:09;11.70;;;7.45;;
59728;SDS011;45588;51.598;5.618;2022-08-21T03:21:34;13.05;;;10.00;;
59728;SDS011;45588;51.598;5.618;2022-08-21T03:24:00;14.43;;;8.30;;
59728;SDS011;45588;51.598;5.618;2022-08-21T03:26:25;14.93;;;11.10;;
59728;SDS011;45588;51.598;5.618;2022-08-21T03:28:50;12.18;;;7.72;;
59728;SDS011;45588;51.598;5.618;2022-08-21T03:31:16;14.95;;;10.98;;
59728;SDS011;45588;51.598;5.618;2022-08-21T03:33:42;18.20;;;9.00;;
59728;SDS011;45588;51.598;5.618;2022-08-21T03:36:08;12.07;;;8.45;;
59728;SDS011;45588;51.598;5.618;2022-08-21T03:38:35;13.25;;;9.82;;
59728;SDS011;45588;51.598;5.618;2022-08-21T03:41:01;13.23;;;9.32;;
59728;SDS011;45588;51.598;5.618;2022-08-21T03:43:27;14.38;;;10.80;;
59728;SDS011;45588;51.598;5.618;2022-08-21T03:45:53;12.30;;;9.68;;
59728;SDS011;45588;51.598;5.618;2022-08-21T03:48:18;7.95;;;6.43;;
59728;SDS011;45588;51.598;5.618;2022-08-21T03:50:44;8.50;;;5.43;;
59728;SDS011;45588;51.598;5.618;2022-08-21T03:53:11;19.27;;;7.15;;
59728;SDS011;45588;51.598;5.618;2022-08-21T03:55:38;7.57;;;5.35;;
59728;SDS011;45588;51.598;5.618;2022-08-21T03:58:04;7.55;;;5.85;;
59728;SDS011;45588;51.598;5.618;2022-08-21T04:00:29;14.27;;;8.68;;
59728;SDS011;45588;51.598;5.618;2022-08-21T04:02:55;10.73;;;6.95;;
59728;SDS011;45588;51.598;5.618;2022-08-21T04:05:20;9.18;;;7.03;;
59728;SDS011;45588;51.598;5.618;2022-08-21T04:07:53;9.20;;;7.65;;
59728;SDS011;45588;51.598;5.618;2022-08-21T04:10:19;13.07;;;8.90;;
59728;SDS011;45588;51.598;5.618;2022-08-21T04:12:45;17.88;;;9.10;;
59728;SDS011;45588;51.598;5.618;2022-08-21T04:15:10;16.15;;;13.90;;
59728;SDS011;45588;51.598;5.618;2022-08-21T04:17:35;15.80;;;10.45;;
59728;SDS011;45588;51.598;5.618;2022-08-21T04:20:01;17.65;;;12.70;;
59728;SDS011;45588;51.598;5.618;2022-08-21T04:22:26;16.88;;;12.23;;
59728;SDS011;45588;51.598;5.618;2022-08-21T04:24:51;8.93;;;7.30;;
59728;SDS011;45588;51.598;5.618;2022-08-21T04:27:17;13.25;;;11.10;;
59728;SDS011;45588;51.598;5.618;2022-08-21T04:29:42;12.90;;;8.85;;
59728;SDS011;45588;51.598;5.618;2022-08-21T04:32:07;13.23;;;8.95;;
59728;SDS011;45588;51.598;5.618;2022-08-21T04:34:32;13.90;;;9.27;;
59728;SDS011;45588;51.598;5.618;2022-08-21T04:36:58;15.63;;;10.88;;
59728;SDS011;45588;51.598;5.618;2022-08-21T04:39:23;17.85;;;10.63;;
59728;SDS011;45588;51.598;5.618;2022-08-21T04:41:48;16.38;;;10.73;;
59728;SDS011;45588;51.598;5.618;2022-08-21T04:44:14;14.05;;;10.20;;
59728;SDS011;45588;51.598;5.618;2022-08-21T04:46:39;22.55;;;11.45;;
59728;SDS011;45588;51.598;5.618;2022-08-21T04:49:05;19.58;;;12.77;;
59728;SDS011;45588;51.598;5.618;2022-08-21T04:51:32;17.48;;;11.95;;
59728;SDS011;45588;51.598;5.618;2022-08-21T04:56:42;17.70;;;12.68;;
59728;SDS011;45588;51.598;5.618;2022-08-21T04:59:16;25.17;;;14.00;;
59728;SDS011;45588;51.598;5.618;2022-08-21T05:01:46;24.95;;;16.23;;
59728;SDS011;45588;51.598;5.618;2022-08-21T05:04:14;18.20;;;13.90;;
59728;SDS011;45588;51.598;5.618;2022-08-21T05:06:43;21.85;;;12.07;;
59728;SDS011;45588;51.598;5.618;2022-08-21T05:09:13;20.88;;;12.70;;
59728;SDS011;45588;51.598;5.618;2022-08-21T05:11:40;20.20;;;12.52;;
59728;SDS011;45588;51.598;5.618;2022-08-21T05:14:06;15.68;;;11.23;;
59728;SDS011;45588;51.598;5.618;2022-08-21T05:16:32;14.55;;;11.45;;
59728;SDS011;45588;51.598;5.618;2022-08-21T05:18:58;21.27;;;12.68;;
59728;SDS011;45588;51.598;5.618;2022-08-21T05:21:23;12.80;;;11.05;;
59728;SDS011;45588;51.598;5.618;2022-08-21T05:23:48;10.98;;;8.40;;
59728;SDS011;45588;51.598;5.618;2022-08-21T05:26:14;13.25;;;8.80;;
59728;SDS011;45588;51.598;5.618;2022-08-21T05:28:39;16.40;;;10.23;;
59728;SDS011;45588;51.598;5.618;2022-08-21T05:31:04;16.20;;;10.82;;
59728;SDS011;45588;51.598;5.618;2022-08-21T05:33:29;14.77;;;8.65;;
59728;SDS011;45588;51.598;5.618;2022-08-21T05:35:55;17.10;;;12.27;;
59728;SDS011;45588;51.598;5.618;2022-08-21T05:38:21;16.45;;;11.95;;
59728;SDS011;45588;51.598;5.618;2022-08-21T05:40:47;16.60;;;12.18;;
59728;SDS011;45588;51.598;5.618;2022-08-21T05:43:12;16.83;;;13.10;;
59728;SDS011;45588;51.598;5.618;2022-08-21T05:45:38;13.75;;;10.88;;
59728;SDS011;45588;51.598;5.618;2022-08-21T05:48:07;19.25;;;11.23;;
59728;SDS011;45588;51.598;5.618;2022-08-21T05:50:34;23.90;;;9.40;;
59728;SDS011;45588;51.598;5.618;2022-08-21T05:53:00;17.63;;;12.45;;
59728;SDS011;45588;51.598;5.618;2022-08-21T05:55:25;16.27;;;10.90;;
59728;SDS011;45588;51.598;5.618;2022-08-21T05:57:51;18.88;;;11.52;;
59728;SDS011;45588;51.598;5.618;2022-08-21T06:00:17;16.08;;;10.45;;
59728;SDS011;45588;51.598;5.618;2022-08-21T06:02:42;14.32;;;10.13;;
59728;SDS011;45588;51.598;5.618;2022-08-21T06:05:08;22.08;;;10.98;;
59728;SDS011;45588;51.598;5.618;2022-08-21T06:07:33;15.38;;;11.02;;
59728;SDS011;45588;51.598;5.618;2022-08-21T06:09:58;14.75;;;9.80;;
59728;SDS011;45588;51.598;5.618;2022-08-21T06:12:24;14.25;;;8.45;;
59728;SDS011;45588;51.598;5.618;2022-08-21T06:14:50;17.23;;;9.25;;
59728;SDS011;45588;51.598;5.618;2022-08-21T06:17:16;19.95;;;11.45;;
59728;SDS011;45588;51.598;5.618;2022-08-21T06:19:43;15.82;;;10.77;;
59728;SDS011;45588;51.598;5.618;2022-08-21T06:22:08;15.98;;;10.05;;
59728;SDS011;45588;51.598;5.618;2022-08-21T06:24:34;18.08;;;11.32;;
59728;SDS011;45588;51.598;5.618;2022-08-21T06:27:04;18.48;;;10.02;;
59728;SDS011;45588;51.598;5.618;2022-08-21T06:29:30;18.07;;;9.77;;
59728;SDS011;45588;51.598;5.618;2022-08-21T06:31:57;20.80;;;10.80;;
59728;SDS011;45588;51.598;5.618;2022-08-21T06:34:22;22.52;;;9.40;;
59728;SDS011;45588;51.598;5.618;2022-08-21T06:36:47;15.55;;;9.27;;
59728;SDS011;45588;51.598;5.618;2022-08-21T06:39:12;14.60;;;8.15;;
59728;SDS011;45588;51.598;5.618;2022-08-21T06:41:38;18.90;;;9.98;;
59728;SDS011;45588;51.598;5.618;2022-08-21T06:44:03;12.15;;;7.00;;
59728;SDS011;45588;51.598;5.618;2022-08-21T06:46:29;13.88;;;8.77;;
59728;SDS011;45588;51.598;5.618;2022-08-21T06:48:55;11.00;;;6.93;;
59728;SDS011;45588;51.598;5.618;2022-08-21T06:51:21;16.02;;;8.02;;
59728;SDS011;45588;51.598;5.618;2022-08-21T06:53:47;13.90;;;8.68;;
59728;SDS011;45588;51.598;5.618;2022-08-21T06:56:12;15.40;;;8.38;;
59728;SDS011;45588;51.598;5.618;2022-08-21T06:58:38;14.80;;;7.30;;
59728;SDS011;45588;51.598;5.618;2022-08-21T07:01:03;17.13;;;8.07;;
59728;SDS011;45588;51.598;5.618;2022-08-21T07:03:30;13.82;;;7.32;;
59728;SDS011;45588;51.598;5.618;2022-08-21T07:05:58;16.33;;;7.47;;
59728;SDS011;45588;51.598;5.618;2022-08-21T07:08:23;20.02;;;7.90;;
59728;SDS011;45588;51.598;5.618;2022-08-21T07:10:50;15.82;;;6.88;;
59728;SDS011;45588;51.598;5.618;2022-08-21T07:13:17;16.55;;;8.57;;
59728;SDS011;45588;51.598;5.618;2022-08-21T07:15:42;19.77;;;9.13;;
59728;SDS011;45588;51.598;5.618;2022-08-21T07:18:09;16.73;;;8.27;;
59728;SDS011;45588;51.598;5.618;2022-08-21T07:20:35;13.80;;;8.10;;
59728;SDS011;45588;51.598;5.618;2022-08-21T07:23:06;17.40;;;8.48;;
59728;SDS011;45588;51.598;5.618;2022-08-21T07:25:35;19.02;;;9.00;;
59728;SDS011;45588;51.598;5.618;2022-08-21T07:28:01;15.60;;;9.50;;
59728;SDS011;45588;51.598;5.618;2022-08-21T07:30:26;20.73;;;9.02;;
59728;SDS011;45588;51.598;5.618;2022-08-21T07:32:52;16.13;;;9.50;;
59728;SDS011;45588;51.598;5.618;2022-08-21T07:35:18;16.85;;;9.55;;
59728;SDS011;45588;51.598;5.618;2022-08-21T07:37:44;18.67;;;9.32;;
59728;SDS011;45588;51.598;5.618;2022-08-21T07:40:10;15.85;;;8.43;;
59728;SDS011;45588;51.598;5.618;2022-08-21T07:42:39;19.42;;;9.82;;
59728;SDS011;45588;51.598;5.618;2022-08-21T07:45:06;17.40;;;9.98;;
59728;SDS011;45588;51.598;5.618;2022-08-21T07:47:32;20.30;;;10.30;;
59728;SDS011;45588;51.598;5.618;2022-08-21T07:49:57;22.85;;;10.05;;
59728;SDS011;45588;51.598;5.618;2022-08-21T07:52:22;17.17;;;9.40;;
59728;SDS011;45588;51.598;5.618;2022-08-21T07:54:48;15.23;;;8.93;;
59728;SDS011;45588;51.598;5.618;2022-08-21T07:57:13;17.73;;;10.45;;
59728;SDS011;45588;51.598;5.618;2022-08-21T07:59:38;17.67;;;9.98;;
59728;SDS011;45588;51.598;5.618;2022-08-21T08:02:04;19.23;;;9.52;;
59728;SDS011;45588;51.598;5.618;2022-08-21T08:04:29;20.70;;;8.93;;
59728;SDS011;45588;51.598;5.618;2022-08-21T08:06:54;18.08;;;8.00;;
59728;SDS011;45588;51.598;5.618;2022-08-21T08:09:19;17.52;;;8.80;;
59728;SDS011;45588;51.598;5.618;2022-08-21T08:11:45;22.42;;;10.48;;
59728;SDS011;45588;51.598;5.618;2022-08-21T08:14:10;19.02;;;8.63;;
59728;SDS011;45588;51.598;5.618;2022-08-21T08:16:36;17.08;;;8.05;;
59728;SDS011;45588;51.598;5.618;2022-08-21T08:19:02;12.75;;;7.15;;
59728;SDS011;45588;51.598;5.618;2022-08-21T08:21:28;19.45;;;8.63;;
59728;SDS011;45588;51.598;5.618;2022-08-21T08:23:53;19.35;;;8.32;;
59728;SDS011;45588;51.598;5.618;2022-08-21T08:26:19;16.52;;;8.98;;
59728;SDS011;45588;51.598;5.618;2022-08-21T08:28:44;17.90;;;8.85;;
59728;SDS011;45588;51.598;5.618;2022-08-21T08:31:11;15.52;;;7.18;;
59728;SDS011;45588;51.598;5.618;2022-08-21T08:33:36;16.45;;;7.60;;
59728;SDS011;45588;51.598;5.618;2022-08-21T08:36:02;17.15;;;7.60;;
59728;SDS011;45588;51.598;5.618;2022-08-21T08:38:28;15.52;;;7.95;;
59728;SDS011;45588;51.598;5.618;2022-08-21T08:41:06;20.00;;;7.07;;
59728;SDS011;45588;51.598;5.618;2022-08-21T08:43:37;15.95;;;6.72;;
59728;SDS011;45588;51.598;5.618;2022-08-21T08:46:03;21.42;;;6.95;;
59728;SDS011;45588;51.598;5.618;2022-08-21T08:48:36;16.00;;;6.68;;
59728;SDS011;45588;51.598;5.618;2022-08-21T08:51:13;17.70;;;6.05;;
59728;SDS011;45588;51.598;5.618;2022-08-21T08:53:55;14.02;;;5.72;;
59728;SDS011;45588;51.598;5.618;2022-08-21T08:56:29;14.18;;;6.97;;
59728;SDS011;45588;51.598;5.618;2022-08-21T08:59:19;14.02;;;5.88;;
59728;SDS011;45588;51.598;5.618;2022-08-21T09:01:45;12.30;;;6.05;;
59728;SDS011;45588;51.598;5.618;2022-08-21T09:04:11;14.95;;;5.85;;
59728;SDS011;45588;51.598;5.618;2022-08-21T09:09:55;14.10;;;4.93;;
59728;SDS011;45588;51.598;5.618;2022-08-21T09:21:49;15.00;;;5.18;;
59728;SDS011;45588;51.598;5.618;2022-08-21T09:27:13;11.65;;;4.13;;
59728;SDS011;45588;51.598;5.618;2022-08-21T09:29:41;10.13;;;4.50;;
59728;SDS011;45588;51.598;5.618;2022-08-21T09:32:11;10.27;;;4.03;;
59728;SDS011;45588;51.598;5.618;2022-08-21T09:34:42;9.50;;;3.33;;
59728;SDS011;45588;51.598;5.618;2022-08-21T09:37:15;10.27;;;3.15;;
59728;SDS011;45588;51.598;5.618;2022-08-21T09:39:42;11.68;;;3.40;;
59728;SDS011;45588;51.598;5.618;2022-08-21T09:42:09;10.73;;;3.47;;
59728;SDS011;45588;51.598;5.618;2022-08-21T09:44:37;10.68;;;3.45;;
59728;SDS011;45588;51.598;5.618;2022-08-21T09:47:06;7.03;;;3.03;;
59728;SDS011;45588;51.598;5.618;2022-08-21T09:49:33;7.68;;;3.45;;
59728;SDS011;45588;51.598;5.618;2022-08-21T09:52:01;12.65;;;4.10;;
59728;SDS011;45588;51.598;5.618;2022-08-21T09:54:30;10.10;;;3.65;;
59728;SDS011;45588;51.598;5.618;2022-08-21T09:57:04;12.75;;;3.83;;
59728;SDS011;45588;51.598;5.618;2022-08-21T10:00:16;11.27;;;3.38;;
59728;SDS011;45588;51.598;5.618;2022-08-21T10:02:50;10.70;;;3.38;;
59728;SDS011;45588;51.598;5.618;2022-08-21T10:05:23;7.53;;;2.80;;
59728;SDS011;45588;51.598;5.618;2022-08-21T10:07:50;6.10;;;2.95;;
59728;SDS011;45588;51.598;5.618;2022-08-21T10:12:53;10.07;;;2.97;;
59728;SDS011;45588;51.598;5.618;2022-08-21T10:18:16;10.32;;;3.30;;
59728;SDS011;45588;51.598;5.618;2022-08-21T10:21:01;11.52;;;3.42;;
59728;SDS011;45588;51.598;5.618;2022-08-21T10:23:36;7.32;;;2.90;;
59728;SDS011;45588;51.598;5.618;2022-08-21T10:34:31;8.05;;;2.72;;
59728;SDS011;45588;51.598;5.618;2022-08-21T10:37:10;9.05;;;3.33;;
59728;SDS011;45588;51.598;5.618;2022-08-21T10:39:43;6.07;;;3.00;;
59728;SDS011;45588;51.598;5.618;2022-08-21T10:42:47;8.68;;;3.70;;
59728;SDS011;45588;51.598;5.618;2022-08-21T10:48:08;8.10;;;3.10;;
59728;SDS011;45588;51.598;5.618;2022-08-21T10:50:52;5.57;;;3.03;;
59728;SDS011;45588;51.598;5.618;2022-08-21T10:56:16;8.43;;;2.80;;
59728;SDS011;45588;51.598;5.618;2022-08-21T10:58:59;8.27;;;3.10;;
59728;SDS011;45588;51.598;5.618;2022-08-21T11:04:25;9.70;;;2.95;;
59728;SDS011;45588;51.598;5.618;2022-08-21T11:07:11;7.35;;;3.00;;
59728;SDS011;45588;51.598;5.618;2022-08-21T11:09:47;6.20;;;3.22;;
59728;SDS011;45588;51.598;5.618;2022-08-21T11:12:20;5.32;;;2.60;;
59728;SDS011;45588;51.598;5.618;2022-08-21T11:17:32;12.73;;;3.72;;
59728;SDS011;45588;51.598;5.618;2022-08-21T11:20:12;10.27;;;4.07;;
59728;SDS011;45588;51.598;5.618;2022-08-21T11:22:49;6.38;;;3.33;;
59728;SDS011;45588;51.598;5.618;2022-08-21T11:25:27;8.88;;;3.83;;
59728;SDS011;45588;51.598;5.618;2022-08-21T11:28:08;8.00;;;4.05;;
59728;SDS011;45588;51.598;5.618;2022-08-21T11:30:54;6.88;;;4.25;;
59728;SDS011;45588;51.598;5.618;2022-08-21T11:33:28;6.93;;;3.60;;
59728;SDS011;45588;51.598;5.618;2022-08-21T11:36:14;7.55;;;3.90;;
59728;SDS011;45588;51.598;5.618;2022-08-21T11:39:24;6.65;;;3.72;;
59728;SDS011;45588;51.598;5.618;2022-08-21T11:44:33;9.30;;;3.40;;
59728;SDS011;45588;51.598;5.618;2022-08-21T11:47:17;11.48;;;3.55;;
59728;SDS011;45588;51.598;5.618;2022-08-21T11:50:00;9.30;;;3.80;;
59728;SDS011;45588;51.598;5.618;2022-08-21T11:52:34;9.13;;;3.25;;
59728;SDS011;45588;51.598;5.618;2022-08-21T11:55:16;6.22;;;3.47;;
59728;SDS011;45588;51.598;5.618;2022-08-21T12:00:17;7.90;;;4.05;;
59728;SDS011;45588;51.598;5.618;2022-08-21T12:02:51;7.88;;;3.22;;
59728;SDS011;45588;51.598;5.618;2022-08-21T12:05:27;8.20;;;3.65;;
59728;SDS011;45588;51.598;5.618;2022-08-21T12:08:14;9.23;;;3.90;;
59728;SDS011;45588;51.598;5.618;2022-08-21T12:11:09;8.15;;;3.28;;
59728;SDS011;45588;51.598;5.618;2022-08-21T12:13:36;7.22;;;3.08;;
59728;SDS011;45588;51.598;5.618;2022-08-21T12:16:05;7.80;;;3.00;;
59728;SDS011;45588;51.598;5.618;2022-08-21T12:18:34;7.82;;;3.13;;
59728;SDS011;45588;51.598;5.618;2022-08-21T12:21:04;8.88;;;2.80;;
59728;SDS011;45588;51.598;5.618;2022-08-21T12:23:34;5.88;;;2.65;;
59728;SDS011;45588;51.598;5.618;2022-08-21T12:26:17;6.40;;;2.78;;
59728;SDS011;45588;51.598;5.618;2022-08-21T12:32:03;9.88;;;2.63;;
59728;SDS011;45588;51.598;5.618;2022-08-21T12:35:06;6.97;;;2.90;;
59728;SDS011;45588;51.598;5.618;2022-08-21T12:37:49;7.78;;;2.40;;
59728;SDS011;45588;51.598;5.618;2022-08-21T12:40:37;7.50;;;2.75;;
59728;SDS011;45588;51.598;5.618;2022-08-21T12:43:05;8.93;;;2.58;;
59728;SDS011;45588;51.598;5.618;2022-08-21T12:45:42;5.35;;;2.53;;
59728;SDS011;45588;51.598;5.618;2022-08-21T12:48:11;9.48;;;2.58;;
59728;SDS011;45588;51.598;5.618;2022-08-21T12:53:29;9.93;;;3.17;;
59728;SDS011;45588;51.598;5.618;2022-08-21T12:56:00;6.60;;;3.00;;
59728;SDS011;45588;51.598;5.618;2022-08-21T12:58:29;9.98;;;2.80;;
59728;SDS011;45588;51.598;5.618;2022-08-21T13:01:07;6.55;;;2.70;;
59728;SDS011;45588;51.598;5.618;2022-08-21T13:03:40;7.82;;;2.55;;
59728;SDS011;45588;51.598;5.618;2022-08-21T13:06:06;6.38;;;2.75;;
59728;SDS011;45588;51.598;5.618;2022-08-21T13:08:35;7.13;;;2.55;;
59728;SDS011;45588;51.598;5.618;2022-08-21T13:11:02;9.48;;;2.80;;
59728;SDS011;45588;51.598;5.618;2022-08-21T13:13:29;7.03;;;2.58;;
59728;SDS011;45588;51.598;5.618;2022-08-21T13:15:59;5.20;;;2.22;;
59728;SDS011;45588;51.598;5.618;2022-08-21T13:18:29;5.13;;;2.53;;
59728;SDS011;45588;51.598;5.618;2022-08-21T13:21:14;7.72;;;2.92;;
59728;SDS011;45588;51.598;5.618;2022-08-21T13:23:40;10.40;;;2.92;;
59728;SDS011;45588;51.598;5.618;2022-08-21T13:26:15;6.55;;;2.50;;
59728;SDS011;45588;51.598;5.618;2022-08-21T13:28:43;8.60;;;2.40;;
59728;SDS011;45588;51.598;5.618;2022-08-21T13:31:12;8.05;;;2.65;;
59728;SDS011;45588;51.598;5.618;2022-08-21T13:33:38;7.88;;;2.53;;
59728;SDS011;45588;51.598;5.618;2022-08-21T13:36:09;11.43;;;2.78;;
59728;SDS011;45588;51.598;5.618;2022-08-21T13:38:39;7.55;;;2.63;;
59728;SDS011;45588;51.598;5.618;2022-08-21T13:43:43;7.63;;;3.10;;
59728;SDS011;45588;51.598;5.618;2022-08-21T13:46:33;6.78;;;2.55;;
59728;SDS011;45588;51.598;5.618;2022-08-21T13:49:01;6.72;;;2.10;;
59728;SDS011;45588;51.598;5.618;2022-08-21T13:51:29;6.18;;;2.90;;
59728;SDS011;45588;51.598;5.618;2022-08-21T13:53:56;8.63;;;2.80;;
59728;SDS011;45588;51.598;5.618;2022-08-21T13:56:29;6.97;;;2.60;;
59728;SDS011;45588;51.598;5.618;2022-08-21T13:58:56;6.68;;;2.30;;
59728;SDS011;45588;51.598;5.618;2022-08-21T14:01:25;6.57;;;2.25;;
59728;SDS011;45588;51.598;5.618;2022-08-21T14:03:55;8.75;;;2.80;;
59728;SDS011;45588;51.598;5.618;2022-08-21T14:06:26;5.55;;;2.22;;
59728;SDS011;45588;51.598;5.618;2022-08-21T14:08:53;8.82;;;3.00;;
59728;SDS011;45588;51.598;5.618;2022-08-21T14:11:22;8.80;;;2.63;;
59728;SDS011;45588;51.598;5.618;2022-08-21T14:13:49;8.00;;;2.53;;
59728;SDS011;45588;51.598;5.618;2022-08-21T14:16:22;7.63;;;2.50;;
59728;SDS011;45588;51.598;5.618;2022-08-21T14:21:33;10.18;;;3.47;;
59728;SDS011;45588;51.598;5.618;2022-08-21T14:24:14;7.43;;;2.50;;
59728;SDS011;45588;51.598;5.618;2022-08-21T14:26:52;8.63;;;2.60;;
59728;SDS011;45588;51.598;5.618;2022-08-21T14:29:20;7.18;;;2.67;;
59728;SDS011;45588;51.598;5.618;2022-08-21T14:31:53;8.50;;;2.85;;
59728;SDS011;45588;51.598;5.618;2022-08-21T14:34:21;8.10;;;2.33;;
59728;SDS011;45588;51.598;5.618;2022-08-21T14:36:49;11.50;;;3.33;;
59728;SDS011;45588;51.598;5.618;2022-08-21T14:39:15;6.80;;;2.67;;
59728;SDS011;45588;51.598;5.618;2022-08-21T14:41:41;7.53;;;2.88;;
59728;SDS011;45588;51.598;5.618;2022-08-21T14:44:07;9.25;;;2.70;;
59728;SDS011;45588;51.598;5.618;2022-08-21T14:46:34;9.93;;;2.90;;
59728;SDS011;45588;51.598;5.618;2022-08-21T14:49:00;8.82;;;3.05;;
59728;SDS011;45588;51.598;5.618;2022-08-21T14:51:26;7.22;;;3.13;;
59728;SDS011;45588;51.598;5.618;2022-08-21T14:53:51;8.25;;;2.80;;
59728;SDS011;45588;51.598;5.618;2022-08-21T14:56:16;7.18;;;2.58;;
59728;SDS011;45588;51.598;5.618;2022-08-21T14:58:42;9.32;;;2.75;;
59728;SDS011;45588;51.598;5.618;2022-08-21T15:01:11;7.25;;;2.67;;
59728;SDS011;45588;51.598;5.618;2022-08-21T15:03:37;8.30;;;2.58;;
59728;SDS011;45588;51.598;5.618;2022-08-21T15:06:04;7.00;;;3.08;;
59728;SDS011;45588;51.598;5.618;2022-08-21T15:08:31;6.15;;;2.22;;
59728;SDS011;45588;51.598;5.618;2022-08-21T15:10:57;6.53;;;2.38;;
59728;SDS011;45588;51.598;5.618;2022-08-21T15:13:24;7.07;;;2.85;;
59728;SDS011;45588;51.598;5.618;2022-08-21T15:15:50;5.82;;;2.60;;
59728;SDS011;45588;51.598;5.618;2022-08-21T15:18:23;10.25;;;3.33;;
59728;SDS011;45588;51.598;5.618;2022-08-21T15:20:50;9.57;;;2.70;;
59728;SDS011;45588;51.598;5.618;2022-08-21T15:23:16;5.85;;;2.50;;
59728;SDS011;45588;51.598;5.618;2022-08-21T15:25:43;7.20;;;2.60;;
59728;SDS011;45588;51.598;5.618;2022-08-21T15:28:10;8.57;;;3.03;;
59728;SDS011;45588;51.598;5.618;2022-08-21T15:30:36;5.90;;;2.22;;
59728;SDS011;45588;51.598;5.618;2022-08-21T15:33:03;9.10;;;2.58;;
59728;SDS011;45588;51.598;5.618;2022-08-21T15:35:28;5.45;;;2.45;;
59728;SDS011;45588;51.598;5.618;2022-08-21T15:37:53;9.77;;;2.83;;
59728;SDS011;45588;51.598;5.618;2022-08-21T15:40:19;8.05;;;2.65;;
59728;SDS011;45588;51.598;5.618;2022-08-21T15:42:44;5.93;;;2.53;;
59728;SDS011;45588;51.598;5.618;2022-08-21T15:45:11;5.78;;;2.45;;
59728;SDS011;45588;51.598;5.618;2022-08-21T15:47:38;6.80;;;2.53;;
59728;SDS011;45588;51.598;5.618;2022-08-21T15:50:07;6.15;;;2.80;;
59728;SDS011;45588;51.598;5.618;2022-08-21T15:52:34;7.45;;;2.50;;